Get Adobe Flash player

РУС

ENG

 
  Pireps - S7
 

Рейс SBIS7 9355

  • Выполнял: Grigoriy Paliy
  • Аэропорт отправления: Pashkovskiy Krasnodar Intl. (URKK)
  • Аэропорт назначения: Domodedovo Airport (UUDD)
  • Тип ВС: TUPOLEV TU15 (RA-85633)
  • Время полёта: 02.17
  • Дата полёта: 05.09.2016
  • Маршрут: NZ R114 BA G247 MIMRA B145 GITAL A928 FE FE1D AO
  • Статус: Одобрен

Детали полёта
Gross Revenue:
(146 load / $ 700.00 per unit
$ 102, 200.00
Fuel Cost:
(9406 fuel used @ 5.1 / unit)
$ 47, 970.60


Дополнительная информация о полёте:

Лог

Aircraft Used in flight is Tu154_felis_v1.1 Siberia
19:32 Boarding
19:32 Navigation Lights ON at 130 AGL
19:32 Beacon Lights ON at 130 AGL
19:32 Brakes are On
19:36 Engine 2 Started
19:38 Engine 1 Started
19:38 Engine 1 Stoped
19:41 Engine 1 Started
19:42 Engine 3 Started
19:48Flaps 2 Selected at 130ft and 1kts
19:48Flaps 4 Selected at 130ft and 1kts
19:49 Brakes are Released
20:01 You Took off @ 160 Knots and Flaps at Position 4
Departure Weather
URKK 051630Z 28001MPS CAVOK 23/13 Q1013 R23C/CLRD60 NOSIG RMK QFE756rn
20:03Flaps 2 Selected at 2810ft and 191kts
20:03 You exceeded maximum bank angle
20:03Flaps Retracted at 3480ft and 211kts
20:04 Below 10000 feet you are not allowed to go over 250 knots
20:18 TOC Reached
21:31Flaps 2 Selected at 1560ft and 171kts
21:32Flaps 4 Selected at 1650ft and 157kts
21:33Flaps 6 Selected at 1640ft and 141kts
21:33Flaps 8 Selected at 1710ft and 145kts
21:36 You Landed @ 153 Knots and with -100 Vertical Speed
Arrival Weather
UUDD 051600Z 30003MPS 9999 FEW008 15/13 Q1009 R88/290095 NOSIGrn
21:37Flaps 6 Selected at 600ft and 20kts
21:37Flaps 4 Selected at 600ft and 20kts
21:37Flaps Retracted at 600ft and 20kts
21:45 Brakes are On
21:45 Engine 3 Stoped
21:45 Engine 2 Stoped
21:45 Engine 1 Stoped
21:46 Beacon Lights OFF at 600 AGL
21:46 Navigation Lights OFF at 600 AGL
Pirep logged with S7 Tracking 1.0.0.13



Общая оценка полета : 100%




Route Map



 
 
   
 
Новости

26.04.2018 - Полеты в X-PLANE

Наш клиент S7 Pad поддерживает полеты как в MFSX, Prepar3d V4, так и в X-PLANE 10 и 11 версиях!
На нашем сайте в разреде загруки есть плагин XPUIPIC for X-plane.
Приятных Вам полетов и мягких посадок!

   
 
Авторизация






Регистрация

Восстановить пароль?

Мы в соц. сетях

      



   
  TeamSpeak3 ts.va-s7.ru


   
 

   
 



   
 


Яндекс.Метрика

www.va-s7.ru 2011-2017
Все права защищены.



Минуточку внимания!
Мы не имеем отношения к торговым маркам "S7" и "Globus" и их представителям.
Эмблемы на сайте являются собственностью соответствующих компаний.

аэронавигационная метеорологическая и любая другая информация с данного ресурса ни в коем случае не должна использоваться для реальных полетов